Time,TemperatureF,DewpointF,PressureIn,WindDirection,WindDirectionDegrees,WindSpeedMPH,WindSpeedGustMPH,Humidity,HourlyPrecipIn,Conditions,Clouds,dailyrainin,SoftwareType,DateUTC
2013-11-06 00:12:00,25.0,20.0,-100.00,SW,220,10.0,13.0,80,-99.99,,,-99.99,,2013-11-06 07:12:00,
2013-11-06 00:52:00,25.0,20.0,-100.00,SW,230,7.0,12.0,81,-99.99,,,-99.99,,2013-11-06 07:52:00,
2013-11-06 01:12:00,24.0,19.0,-100.00,SW,225,7.0,9.0,81,-99.99,,,-99.99,,2013-11-06 08:12:00,
2013-11-06 01:52:00,24.0,19.0,-100.00,SW,230,9.0,11.0,81,-99.99,,,-99.99,,2013-11-06 08:52:00,
2013-11-06 02:12:00,24.0,19.0,-100.00,SW,225,10.0,12.0,81,-99.99,,,-99.99,,2013-11-06 09:12:00,
2013-11-06 02:53:00,24.0,19.0,-100.00,SW,235,10.0,13.0,80,-99.99,,,-99.99,,2013-11-06 09:53:00,
2013-11-06 03:12:00,24.0,19.0,-100.00,West,275,7.0,11.0,80,-99.99,,,-99.99,,2013-11-06 10:12:00,
2013-11-06 03:53:00,22.0,18.0,-100.00,West,260,9.0,12.0,82,-99.99,,,-99.99,,2013-11-06 10:53:00,
2013-11-06 04:12:00,22.0,18.0,-100.00,West,265,7.0,11.0,82,-99.99,,,-99.99,,2013-11-06 11:12:00,
2013-11-06 04:52:00,22.0,17.0,-100.00,West,270,7.0,9.0,82,-99.99,,,-99.99,,2013-11-06 11:52:00,
2013-11-06 05:12:00,21.0,17.0,-100.00,West,260,7.0,9.0,82,-99.99,,,-99.99,,2013-11-06 12:12:00,
2013-11-06 05:52:00,20.0,16.0,-100.00,WSW,250,9.0,11.0,82,-99.99,,,-99.99,,2013-11-06 12:52:00,
2013-11-06 06:12:00,20.0,16.0,-100.00,WSW,255,9.0,11.0,82,-99.99,,,-99.99,,2013-11-06 13:12:00,
2013-11-06 06:52:00,22.0,17.0,-100.00,West,270,7.0,10.0,80,-99.99,,,-99.99,,2013-11-06 13:52:00,
2013-11-06 07:11:00,21.0,16.0,-100.00,West,270,7.0,9.0,79,-99.99,,,-99.99,,2013-11-06 14:11:00,
2013-11-06 07:52:00,25.0,18.0,-100.00,West,270,4.0,7.0,75,-99.99,,,-99.99,,2013-11-06 14:52:00,
2013-11-06 08:54:00,27.0,19.0,-100.00,WSW,240,7.0,11.0,69,-99.99,,,-99.99,,2013-11-06 15:54:00,
2013-11-06 09:12:00,28.0,19.0,-100.00,WSW,245,9.0,12.0,68,-99.99,,,-99.99,,2013-11-06 16:12:00,
2013-11-06 09:53:00,34.0,20.0,-100.00,WSW,245,6.0,9.0,56,-99.99,,,-99.99,,2013-11-06 16:53:00,
2013-11-06 10:13:00,35.0,20.0,-100.00,SW,230,9.0,11.0,54,-99.99,,,-99.99,,2013-11-06 17:13:00,
2013-11-06 10:52:00,39.0,18.0,-100.00,WSW,250,9.0,12.0,42,-99.99,,,-99.99,,2013-11-06 17:52:00,
2013-11-06 11:12:00,39.0,17.0,-100.00,West,260,9.0,12.0,40,-99.99,,,-99.99,,2013-11-06 18:12:00,
2013-11-06 11:52:00,40.0,17.0,-100.00,WNW,285,13.0,17.0,39,-99.99,,,-99.99,,2013-11-06 18:52:00,
2013-11-06 12:11:00,40.0,17.0,-100.00,WNW,290,10.0,13.0,38,-99.99,,,-99.99,,2013-11-06 19:11:00,
2013-11-06 12:52:00,41.0,14.0,-100.00,NW,305,12.0,18.0,32,-99.99,,,-99.99,,2013-11-06 19:52:00,
2013-11-06 13:12:00,41.0,14.0,-100.00,WNW,300,11.0,18.0,32,-99.99,,,-99.99,,2013-11-06 20:12:00,
2013-11-06 13:52:00,42.0,15.0,-100.00,WNW,300,13.0,22.0,32,-99.99,,,-99.99,,2013-11-06 20:52:00,
2013-11-06 14:12:00,42.0,14.0,-100.00,WNW,300,20.0,24.0,32,-99.99,,,-99.99,,2013-11-06 21:12:00,
2013-11-06 14:54:00,39.0,11.0,-100.00,NW,315,18.0,24.0,31,-99.99,,,-99.99,,2013-11-06 21:54:00,
2013-11-06 15:14:00,39.0,11.0,-100.00,NW,305,15.0,21.0,31,-99.99,,,-99.99,,2013-11-06 22:14:00,
2013-11-06 15:53:00,37.0,9.0,-100.00,NW,310,16.0,20.0,30,-99.99,,,-99.99,,2013-11-06 22:53:00,
2013-11-06 16:13:00,37.0,9.0,-100.00,NW,305,15.0,19.0,31,-99.99,,,-99.99,,2013-11-06 23:13:00,
2013-11-06 16:53:00,34.0,8.0,-100.00,WNW,300,12.0,16.0,33,-99.99,,,-99.99,,2013-11-06 23:53:00,
2013-11-06 17:11:00,33.0,8.0,-100.00,NW,305,11.0,14.0,34,-99.99,,,-99.99,,2013-11-07 00:11:00,
2013-11-06 17:52:00,31.0,9.0,-100.00,WNW,300,11.0,14.0,39,-99.99,,,-99.99,,2013-11-07 00:52:00,
2013-11-06 18:11:00,30.0,9.0,-100.00,NW,305,11.0,14.0,40,-99.99,,,-99.99,,2013-11-07 01:11:00,
2013-11-06 18:52:00,29.0,10.0,-100.00,NW,315,11.0,13.0,44,-99.99,,,-99.99,,2013-11-07 01:52:00,
2013-11-06 19:11:00,29.0,10.0,-100.00,NW,315,10.0,13.0,45,-99.99,,,-99.99,,2013-11-07 02:11:00,
2013-11-06 20:12:00,25.0,12.0,-100.00,WNW,300,9.0,9.0,56,-99.99,,,-99.99,,2013-11-07 03:12:00,
2013-11-06 20:55:00,22.0,12.0,-100.00,West,280,7.0,8.0,64,-99.99,,,-99.99,,2013-11-07 03:55:00,
2013-11-06 21:13:00,22.0,13.0,-100.00,West,280,7.0,7.0,65,-99.99,,,-99.99,,2013-11-07 04:13:00,
2013-11-06 21:53:00,22.0,13.0,-100.00,West,265,6.0,9.0,66,-99.99,,,-99.99,,2013-11-07 04:53:00,
2013-11-06 22:13:00,22.0,13.0,-100.00,West,260,9.0,9.0,67,-99.99,,,-99.99,,2013-11-07 05:13:00,
2013-11-06 22:54:00,22.0,13.0,-100.00,WSW,250,9.0,10.0,68,-99.99,,,-99.99,,2013-11-07 05:54:00,
2013-11-06 23:13:00,22.0,13.0,-100.00,WSW,245,11.0,12.0,68,-99.99,,,-99.99,,2013-11-07 06:13:00,
2013-11-06 23:52:00,22.0,12.0,-100.00,West,265,9.0,12.0,63,-99.99,,,-99.99,,2013-11-07 06:52:00,